Flight Track Log - Related Links

Times and Time Zones

All times are in EDT time to prevent confusion due to time zone crossing. See the GJS3649 flight status page for this flight to view local times or setup timezone preferences in your user account.

Time Position Orientation Groundspeed Altitude Reporting Facility
EDT Latitude Longitude Course Direction KTS MPH feet Rate Location/Type
Sat 06:21:28 PM 35.8275 -78.8711 228° Southwest 208 239 3,500  Level Washington Center
Sat 06:22:29 PM 35.8417 -78.9539 282° West 269 310 5,700 1,641 Climbing Washington Center
Sat 06:23:36 PM 35.8450 -79.0589 272° West 280 322 7,000 1,748 Climbing Washington Center
Sat 06:24:36 PM 35.8408 -79.1356 266° West 287 330 9,400 2,593 Climbing Washington Center
Sat 06:25:34 PM 35.8375 -79.2381 268° West 281 323 12,100 2,339 Climbing Washington Center
Sat 06:26:34 PM 35.8350 -79.3250 268° West 281 323 14,000 1,602 Climbing Washington Center
Sat 06:28:45 PM 35.8136 -79.5522 263° West 292 336 17,200 1,571 Climbing Atlanta Center
Sat 06:29:45 PM 35.7942 -79.6533 257° West 297 342 19,000 1,350 Climbing Atlanta Center
Sat 06:30:45 PM 35.7753 -79.7644 258° West 304 350 19,900 1,100 Climbing Atlanta Center
Sat 06:31:45 PM 35.7564 -79.8856 259° West 341 392 21,200 1,250 Climbing Atlanta Center
Sat 06:32:45 PM 35.7372 -79.9967 258° West 363 418 22,400 1,150 Climbing Atlanta Center
Sat 06:33:45 PM 35.7161 -80.1203 258° West 368 423 23,500 1,050 Climbing Atlanta Center
Sat 06:34:45 PM 35.6908 -80.2469 256° West 375 432 24,500 1,050 Climbing Atlanta Center
Sat 06:35:45 PM 35.6683 -80.3936 259° West 390 449 25,600 1,100 Climbing Atlanta Center
Sat 06:36:45 PM 35.6847 -80.5233 279° West 390 449 26,700 1,050 Climbing Atlanta Center
Sat 06:37:45 PM 35.7728 -80.6192 319° Northwest 394 453 27,700 1,000 Climbing Atlanta Center
Sat 06:38:45 PM 35.8672 -80.7128 321° Northwest 417 480 28,700 950 Climbing Atlanta Center
Sat 06:39:45 PM 35.9636 -80.8089 321° Northwest 438 504 29,600 850 Climbing Atlanta Center
Sat 06:40:45 PM 36.0600 -80.9050 321° Northwest 443 510 30,400 750 Climbing Atlanta Center
Sat 06:41:45 PM 36.1606 -81.0014 322° Northwest 448 516 31,100 700 Climbing Atlanta Center
Sat 06:42:45 PM 36.2567 -81.1008 320° Northwest 448 516 31,800 700 Climbing Atlanta Center
Sat 06:43:45 PM 36.3550 -81.1978 322° Northwest 453 521 32,500 650 Climbing Atlanta Center
Sat 06:44:45 PM 36.4444 -81.2875 321° Northwest 453 521 33,100 650 Climbing Atlanta Center
Sat 06:45:45 PM 36.5425 -81.3850 321° Northwest 453 521 33,800 700 Climbing Atlanta Center
Sat 06:46:45 PM 36.6406 -81.4825 321° Northwest 454 522 34,500 750 Climbing Atlanta Center
Sat 06:47:45 PM 36.7472 -81.5958 320° Northwest 454 522 35,300 720 Climbing Atlanta Center
Sat 06:50:05 PM 36.9786 -81.8217 322° Northwest 448 516 36,900 687 Climbing Indianapolis Center
Sat 06:51:06 PM 37.0850 -81.9058 328° Northwest 452 520 37,600 541 Climbing Indianapolis Center
Sat 06:52:07 PM 37.1914 -81.9894 328° Northwest 451 519 38,000 195 Climbing Indianapolis Center
Sat 06:53:09 PM 37.2975 -82.0739 328° Northwest 452 520 38,000  Level Indianapolis Center
Sat 06:54:10 PM 37.4061 -82.1608 328° Northwest 461 531 38,000  Level Indianapolis Center
Sat 06:55:11 PM 37.5153 -82.2478 328° Northwest 464 534 38,000  Level Indianapolis Center
Sat 06:56:13 PM 37.6231 -82.3353 327° Northwest 463 533 38,000  Level Indianapolis Center
Sat 06:57:14 PM 37.7508 -82.4369 328° Northwest 465 535 38,000  Level Indianapolis Center
Sat 06:58:15 PM 37.8600 -82.5258 327° Northwest 467 537 38,000  Level Indianapolis Center
Sat 06:59:17 PM 37.9681 -82.6136 327° Northwest 464 534 38,000  Level Indianapolis Center
Sat 07:00:18 PM 38.0775 -82.7019 328° Northwest 465 535 38,000  Level Indianapolis Center
Sat 07:01:19 PM 38.1858 -82.7914 327° Northwest 465 535 38,000  Level Indianapolis Center
Sat 07:02:21 PM 38.2939 -82.8806 327° Northwest 463 533 38,000  Level Indianapolis Center
Sat 07:03:22 PM 38.4033 -82.9697 327° Northwest 466 536 38,000  Level Indianapolis Center
Sat 07:04:23 PM 38.5125 -83.0606 327° Northwest 468 539 38,000  Level Indianapolis Center
Sat 07:05:25 PM 38.6408 -83.1672 327° Northwest 470 541 38,000  Level Indianapolis Center
Sat 07:06:26 PM 38.7453 -83.2519 328° Northwest 471 542 38,000  Level Indianapolis Center
Sat 07:07:27 PM 38.8558 -83.3467 326° Northwest 472 543 38,000 -49 Level Indianapolis Center
Sat 07:08:29 PM 38.9667 -83.4386 327° Northwest 472 543 37,900  Descending Indianapolis Center
Sat 07:09:30 PM 39.0772 -83.5308 327° Northwest 469 540 38,000 49 Climbing Indianapolis Center
Sat 07:10:31 PM 39.1889 -83.6256 327° Northwest 474 545 38,000  Level Indianapolis Center
Sat 07:11:33 PM 39.2731 -83.7453 312° West 446 513 38,000 -49 Level Indianapolis Center
Sat 07:12:34 PM 39.3469 -83.8792 306° West 450 518 37,900  Descending Indianapolis Center
Sat 07:13:36 PM 39.4189 -84.0117 305° West 447 514 38,000 49 Climbing Indianapolis Center
Sat 07:14:37 PM 39.4947 -84.1442 307° West 452 520 38,000  Level Indianapolis Center
Sat 07:15:38 PM 39.5692 -84.2789 306° West 454 522 38,000  Level Indianapolis Center
Sat 07:16:40 PM 39.6433 -84.4133 306° West 453 521 38,000  Level Indianapolis Center
Sat 07:17:41 PM 39.7397 -84.5228 319° Northwest 461 531 38,000  Level Indianapolis Center
Sat 07:18:42 PM 39.8592 -84.5897 337° Northwest 462 532 38,000 -49 Level Indianapolis Center
Sat 07:19:44 PM 39.9986 -84.6647 338° Northwest 459 528 37,900 -49 Descending Indianapolis Center
Sat 07:20:45 PM 40.1158 -84.7261 338° Northwest 452 520 37,900 -738 Level Indianapolis Center
Sat 07:21:46 PM 40.2353 -84.7900 338° Northwest 456 525 36,400 -1,902 Descending Indianapolis Center
Sat 07:22:48 PM 40.3531 -84.8525 338° Northwest 453 521 34,000 -2,000 Descending Indianapolis Center
Sat 07:23:49 PM 40.4656 -84.9125 338° Northwest 451 519 32,300 -984 Descending Indianapolis Center
Sat 07:24:50 PM 40.5858 -84.9767 338° Northwest 464 534 32,000 -144 Descending Indianapolis Center
Sat 07:25:54 PM 40.7117 -85.0414 339° North 463 533 32,000  Level Chicago Center
Sat 07:26:56 PM 40.8300 -85.1050 338° Northwest 460 529 32,000  Level Chicago Center
Sat 07:27:57 PM 40.9231 -85.2178 318° Northwest 461 531 32,000 -244 Level Chicago Center
Sat 07:28:59 PM 40.9775 -85.3694 295° West 454 522 31,500 -1,887 Descending Chicago Center
Sat 07:30:01 PM 41.0428 -85.5614 294° West 473 544 28,100 -2,976 Descending Chicago Center
Sat 07:31:02 PM 41.0919 -85.7181 293° West 461 531 25,400 -1,854 Descending Chicago Center
Sat 07:32:04 PM 41.1389 -85.8700 292° West 447 514 24,300 -677 Descending Chicago Center
Sat 07:33:06 PM 41.1839 -86.0186 292° West 436 502 24,000 -145 Descending Chicago Center
Sat 07:34:08 PM 41.2281 -86.1697 291° West 438 504 24,000  Level Chicago Center
Sat 07:35:09 PM 41.2725 -86.3208 291° West 438 504 24,000  Level Chicago Center
Sat 07:36:11 PM 41.3175 -86.4731 292° West 442 509 24,000  Level Chicago Center
Sat 07:37:13 PM 41.3619 -86.6253 291° West 442 509 24,000 -1,610 Level Chicago Center
Sat 07:38:14 PM 41.4114 -86.7958 291° West 410 472 20,700 -3,610 Descending Chicago Center
Sat 07:39:16 PM 41.4522 -86.9369 291° West 410 472 16,600 -3,677 Descending Chicago Center
Sat 07:40:18 PM 41.4908 -87.0711 291° West 397 457 13,100 -2,732 Descending Chicago Center
Sat 07:41:19 PM 41.5283 -87.1969 292° West 376 433 11,000 -1,073 Descending Chicago Center
Sat 07:42:21 PM 41.5872 -87.2981 308° West 358 412 10,900 -484 Descending Chicago Center
Sat 07:43:23 PM 41.6492 -87.3958 310° West 349 402 10,000 -439 Descending Chicago Center
Sat 07:44:24 PM 41.7144 -87.4958 311° West 300 345 10,000 -49 Level Chicago Center
Sat 07:45:26 PM 41.7686 -87.5789 311° West 299 344 9,900 -581 Descending Chicago Center
Sat 07:46:28 PM 41.8206 -87.6581 311° West 289 333 8,800 -919 Descending Chicago Center
Sat 07:47:30 PM 41.8717 -87.7378 311° West 286 329 8,000 -390 Descending Chicago Center
Sat 07:48:31 PM 41.9281 -87.7764 333° Northwest 245 282 8,000  Level Chicago Center
Sat 07:49:33 PM 42.0042 -87.7867 354° North 231 266 8,000 -435 Level Chicago Center
Sat 07:50:35 PM 42.0661 -87.8019 350° North 230 265 7,100 -484 Descending Chicago Center
Sat 07:51:37 PM 42.0744 -87.8886 277° West 229 264 7,000 -49 Descending Chicago Center
Sat 07:52:38 PM 42.0803 -87.9664 276° West 213 245 7,000 -146 Level Chicago Center
Sat 07:53:40 PM 42.0931 -88.0442 283° West 214 246 6,700 -774 Descending Chicago Center
Sat 07:54:42 PM 42.0947 -88.1183 272° West 204 235 5,400 -1,355 Descending Chicago Center
Sat 07:55:44 PM 42.0847 -88.2075 261° West 205 236 3,900 -1,171 Descending Chicago Center
Sat 07:56:45 PM 42.0542 -88.2661 235° Southwest 206 237 3,000 -439 Descending Chicago Center
Sat 07:57:47 PM 42.0094 -88.2378 155° Southeast 199 229 3,000  Level Chicago Center
Sat 07:58:49 PM 41.9894 -88.1792 115° Southeast 182 209 3,000  Level Chicago Center
Sat 07:59:42 PM 41.9833 -88.1167 97° East 153 176 3,000 -53 Level Chicago TRACON
Sat 08:00:42 PM 41.9833 -88.0667 90° East 145 167 2,900 -450 Descending Chicago TRACON
Sat 08:01:42 PM 41.9833 -88.0167 90° East 141 162 2,100 -750 Descending Chicago TRACON
Sat 08:02:42 PM 41.9833 -87.9667 90° East 131 151 1,400 -700 Descending Chicago TRACON
Sat 08:04:00 PM 41.9817 -87.9067 118° Southeast  Level Estimated

Login

Don't have an account? Register now (free) for customized features, flight alerts, and more!